| time (UTC) | temp C | wind direction | speed KPH | gust KPH | rain 1hr cm | rain 24hr cm | rain mn cm | humidity % | barometer mb |
| 20260507041004 | 17 | 253 | 3.2 | 9.7 | 0.00 | 0.00 | 0.00 | 69 | 1017.4 |
| 20260507040504 | 17 | 254 | 3.2 | 12.9 | 0.00 | 0.00 | 0.00 | 69 | 1017.4 |
| 20260507040004 | 17 | 263 | 4.8 | 12.9 | 0.00 | 0.00 | 0.00 | 68 | 1017.4 |
| 20260507035504 | 17 | 272 | 3.2 | 14.5 | 0.00 | 0.00 | 0.00 | 68 | 1017.3 |
| 20260507035004 | 17 | 226 | 4.8 | 14.5 | 0.00 | 0.00 | 0.00 | 68 | 1017.3 |
| 20260507034003 | 17 | 233 | 3.2 | 12.9 | 0.00 | 0.00 | 0.00 | 67 | 1017.0 |
| 20260507033504 | 17 | 226 | 3.2 | 12.9 | 0.00 | 0.00 | 0.00 | 67 | 1017.0 |
| 20260507031504 | 18 | 256 | 6.4 | 16.1 | 0.00 | 0.00 | 0.00 | 66 | 1016.9 |
| 20260507031004 | 18 | 229 | 6.4 | 16.1 | 0.00 | 0.00 | 0.00 | 65 | 1016.4 |
| 20260507030504 | 18 | 227 | 6.4 | 12.9 | 0.00 | 0.00 | 0.00 | 65 | 1016.4 |
| 20260507025504 | 18 | 237 | 6.4 | 19.3 | 0.00 | 0.00 | 0.00 | 65 | 1016.4 |
| 20260507024504 | 18 | 219 | 4.8 | 19.3 | 0.00 | 0.00 | 0.00 | 64 | 1016.4 |
| 20260507024004 | 18 | 222 | 6.4 | 19.3 | 0.00 | 0.00 | 0.00 | 64 | 1016.4 |
| 20260507023504 | 19 | 219 | 8.0 | 12.9 | 0.00 | 0.00 | 0.00 | 63 | 1016.4 |
| 20260507023004 | 19 | 215 | 4.8 | 12.9 | 0.00 | 0.00 | 0.00 | 62 | 1016.4 |
| 20260507022503 | 19 | 233 | 4.8 | 16.1 | 0.00 | 0.00 | 0.00 | 62 | 1016.4 |
| 20260507022003 | 20 | 232 | 6.4 | 16.1 | 0.00 | 0.00 | 0.00 | 61 | 1016.4 |
| 20260507021504 | 20 | 248 | 4.8 | 14.5 | 0.00 | 0.00 | 0.00 | 61 | 1016.2 |
| 20260507021003 | 20 | 264 | 4.8 | 12.9 | 0.00 | 0.00 | 0.00 | 61 | 1016.2 |
| 20260507020003 | 20 | 225 | 6.4 | 16.1 | 0.00 | 0.00 | 0.00 | 60 | 1016.2 |
| 20260507015503 | 20 | 231 | 8.0 | 16.1 | 0.00 | 0.00 | 0.00 | 59 | 1016.2 |
| 20260507015004 | 20 | 207 | 6.4 | 14.5 | 0.00 | 0.00 | 0.00 | 59 | 1016.2 |
| 20260507014503 | 21 | 223 | 8.0 | 14.5 | 0.00 | 0.00 | 0.00 | 58 | 1016.0 |
| 20260507013504 | 21 | 242 | 4.8 | 12.9 | 0.00 | 0.00 | 0.00 | 57 | 1016.0 |
| 20260507013004 | 21 | 238 | 4.8 | 12.9 | 0.00 | 0.00 | 0.00 | 56 | 1016.0 |
| 20260507012504 | 21 | 228 | 4.8 | 12.9 | 0.00 | 0.00 | 0.00 | 56 | 1015.9 |
| 20260507012004 | 21 | 226 | 4.8 | 12.9 | 0.00 | 0.00 | 0.00 | 55 | 1015.9 |
| 20260507010504 | 22 | 233 | 3.2 | 12.9 | 0.00 | 0.00 | 0.00 | 54 | 1015.8 |
| 20260507010004 | 22 | 231 | 6.4 | 14.5 | 0.00 | 0.00 | 0.00 | 53 | 1015.8 |
| 20260507005503 | 22 | 235 | 4.8 | 20.9 | 0.00 | 0.00 | 0.00 | 53 | 1015.6 |
| 20260507005003 | 22 | 213 | 9.7 | 20.9 | 0.00 | 0.00 | 0.00 | 52 | 1015.6 |
| 20260507004004 | 23 | 264 | 8.0 | 22.5 | 0.00 | 0.00 | 0.00 | 52 | 1015.7 |
| 20260507002503 | 23 | 263 | 4.8 | 25.7 | 0.00 | 0.00 | 0.00 | 52 | 1015.7 |
| 20260507001504 | 23 | 265 | 6.4 | 22.5 | 0.00 | 0.00 | 0.00 | 52 | 1015.7 |
| 20260507001004 | 23 | 264 | 6.4 | 16.1 | 0.00 | 0.00 | 0.00 | 52 | 1015.7 |
| 20260507000503 | 23 | 230 | 8.0 | 16.1 | 0.00 | 0.00 | 0.00 | 51 | 1015.7 |
| 20260507000004 | 23 | 229 | 8.0 | 19.3 | 0.00 | 0.00 | 0.00 | 51 | 1015.7 |
| 20260506235004 | 23 | 231 | 6.4 | 19.3 | 0.00 | 0.00 | 0.00 | 49 | 1015.7 |
| 20260506233504 | 24 | 238 | 4.8 | 19.3 | 0.00 | 0.00 | 0.00 | 48 | 1015.7 |
| 20260506233004 | 23 | 253 | 6.4 | 19.3 | 0.00 | 0.00 | 0.00 | 48 | 1015.7 |
| 20260506232504 | 24 | 245 | 8.0 | 19.3 | 0.00 | 0.00 | 0.00 | 48 | 1015.7 |
| 20260506231003 | 25 | 254 | 4.8 | 24.1 | 0.00 | 0.00 | 0.00 | 47 | 1015.7 |
| 20260506225503 | 25 | 260 | 6.4 | 19.3 | 0.00 | 0.00 | 0.00 | 48 | 1016.0 |
| 20260506225004 | 25 | 273 | 9.7 | 19.3 | 0.00 | 0.00 | 0.00 | 47 | 1016.0 |
| 20260506224503 | 25 | 263 | 8.0 | 16.1 | 0.00 | 0.00 | 0.00 | 48 | 1016.0 |
| 20260506224003 | 25 | 260 | 6.4 | 16.1 | 0.00 | 0.00 | 0.00 | 47 | 1016.0 |
| 20260506223504 | 25 | 289 | 6.4 | 20.9 | 0.00 | 0.00 | 0.00 | 48 | 1016.0 |
| 20260506223004 | 25 | 238 | 8.0 | 20.9 | 0.00 | 0.00 | 0.00 | 46 | 1016.2 |
| 20260506222504 | 25 | 245 | 8.0 | 24.1 | 0.00 | 0.00 | 0.00 | 47 | 1016.2 |
| 20260506222004 | 25 | 265 | 8.0 | 24.1 | 0.00 | 0.00 | 0.00 | 47 | 1016.2 |
| 20260506221504 | 25 | 278 | 4.8 | 22.5 | 0.00 | 0.00 | 0.00 | 46 | 1016.2 |
| 20260506221003 | 25 | 221 | 6.4 | 22.5 | 0.00 | 0.00 | 0.00 | 46 | 1016.2 |
| 20260506220503 | 25 | 277 | 11.3 | 22.5 | 0.00 | 0.00 | 0.00 | 46 | 1016.2 |
| 20260506215503 | 25 | 232 | 8.0 | 19.3 | 0.00 | 0.00 | 0.00 | 46 | 1017.2 |
| 20260506215004 | 25 | 292 | 4.8 | 19.3 | 0.00 | 0.00 | 0.00 | 47 | 1017.2 |
| 20260506214503 | 25 | 281 | 3.2 | 16.1 | 0.00 | 0.00 | 0.00 | 47 | 1017.2 |
| 20260506214004 | 25 | 263 | 6.4 | 16.1 | 0.00 | 0.00 | 0.00 | 46 | 1017.2 |
| 20260506213503 | 25 | 215 | 4.8 | 11.3 | 0.00 | 0.00 | 0.00 | 46 | 1017.2 |
| 20260506212504 | 25 | 241 | 4.8 | 19.3 | 0.00 | 0.00 | 0.00 | 45 | 1017.2 |
| 20260506212004 | 25 | 281 | 4.8 | 19.3 | 0.00 | 0.00 | 0.00 | 44 | 1017.2 |
| 20260506211503 | 25 | 228 | 4.8 | 11.3 | 0.00 | 0.00 | 0.00 | 45 | 1017.2 |
| 20260506211004 | 25 | 173 | 6.4 | 19.3 | 0.00 | 0.00 | 0.00 | 43 | 1017.2 |
| 20260506210504 | 25 | 285 | 9.7 | 19.3 | 0.00 | 0.00 | 0.00 | 45 | 1017.2 |
| 20260506210004 | 25 | 268 | 4.8 | 12.9 | 0.00 | 0.00 | 0.00 | 45 | 1017.2 |
| 20260506205004 | 25 | 302 | 4.8 | 19.3 | 0.00 | 0.00 | 0.00 | 47 | 1017.2 |
| 20260506204503 | 25 | 267 | 4.8 | 19.3 | 0.00 | 0.00 | 0.00 | 45 | 1017.2 |
| 20260506204003 | 25 | 242 | 4.8 | 16.1 | 0.00 | 0.00 | 0.00 | 46 | 1017.2 |
| 20260506203503 | 25 | 301 | 6.4 | 20.9 | 0.00 | 0.00 | 0.00 | 47 | 1017.2 |
| 20260506203004 | 24 | 289 | 4.8 | 20.9 | 0.00 | 0.00 | 0.00 | 46 | 1017.5 |
| 20260506202503 | 24 | 222 | 8.0 | 24.1 | 0.00 | 0.00 | 0.00 | 47 | 1017.5 |
| 20260506201504 | 24 | 341 | 9.7 | 20.9 | 0.00 | 0.00 | 0.00 | 48 | 1017.5 |
| 20260506201003 | 23 | 37 | 1.6 | 19.3 | 0.00 | 0.00 | 0.00 | 48 | 1017.5 |
| 20260506200503 | 24 | 355 | 8.0 | 19.3 | 0.00 | 0.00 | 0.00 | 49 | 1017.5 |
| 20260506195504 | 23 | 235 | 4.8 | 14.5 | 0.00 | 0.00 | 0.00 | 50 | 1017.7 |
| 20260506195004 | 23 | 2 | 1.6 | 19.3 | 0.00 | 0.00 | 0.00 | 48 | 1017.7 |
| 20260506194504 | 23 | 282 | 8.0 | 19.3 | 0.00 | 0.00 | 0.00 | 49 | 1018.0 |
| 20260506194004 | 23 | 278 | 11.3 | 19.3 | 0.00 | 0.00 | 0.00 | 47 | 1018.0 |
| 20260506193504 | 23 | 0 | 4.8 | 14.5 | 0.00 | 0.00 | 0.00 | 50 | 1018.0 |
| 20260506193004 | 23 | 28 | 4.8 | 12.9 | 0.00 | 0.00 | 0.00 | 50 | 1018.0 |
| 20260506192504 | 23 | 321 | 8.0 | 12.9 | 0.00 | 0.00 | 0.00 | 49 | 1018.0 |
| 20260506192004 | 23 | 336 | 9.7 | 12.9 | 0.00 | 0.00 | 0.00 | 51 | 1018.0 |
| 20260506191003 | 22 | 228 | 4.8 | 11.3 | 0.00 | 0.00 | 0.00 | 53 | 1018.3 |
| 20260506190504 | 21 | 48 | 4.8 | 11.3 | 0.00 | 0.00 | 0.00 | 53 | 1018.3 |
| 20260506190003 | 22 | 310 | 3.2 | 11.3 | 0.00 | 0.00 | 0.00 | 52 | 1018.3 |
| 20260506185004 | 21 | 77 | 3.2 | 12.9 | 0.00 | 0.00 | 0.00 | 52 | 1018.7 |
| 20260506184504 | 21 | 125 | 4.8 | 12.9 | 0.00 | 0.00 | 0.00 | 51 | 1018.7 |
| 20260506184004 | 22 | 28 | 4.8 | 11.3 | 0.00 | 0.00 | 0.00 | 52 | 1018.7 |
| 20260506182504 | 21 | 32 | 3.2 | 12.9 | 0.00 | 0.00 | 0.00 | 54 | 1018.7 |
| 20260506182004 | 21 | 16 | 4.8 | 12.9 | 0.00 | 0.00 | 0.00 | 55 | 1018.7 |
| 20260506181004 | 21 | 83 | 4.8 | 8.0 | 0.00 | 0.00 | 0.00 | 53 | 1018.7 |
| 20260506180504 | 20 | 66 | 3.2 | 12.9 | 0.00 | 0.00 | 0.00 | 55 | 1019.0 |
| 20260506180004 | 20 | 29 | 3.2 | 12.9 | 0.00 | 0.00 | 0.00 | 57 | 1019.0 |
| 20260506175504 | 20 | 95 | 3.2 | 11.3 | 0.00 | 0.00 | 0.00 | 55 | 1019.0 |
| 20260506175004 | 20 | 330 | 6.4 | 11.3 | 0.00 | 0.00 | 0.00 | 56 | 1019.0 |
| 20260506174503 | 20 | 351 | 3.2 | 9.7 | 0.00 | 0.00 | 0.00 | 61 | 1019.0 |
| 20260506174004 | 20 | 74 | 3.2 | 9.7 | 0.00 | 0.00 | 0.00 | 58 | 1019.0 |
| 20260506173504 | 19 | 41 | 3.2 | 9.7 | 0.00 | 0.00 | 0.00 | 61 | 1019.0 |
| 20260506173004 | 18 | 34 | 3.2 | 9.7 | 0.00 | 0.00 | 0.00 | 62 | 1019.0 |
| 20260506172004 | 18 | 54 | 3.2 | 9.7 | 0.00 | 0.00 | 0.00 | 64 | 1019.0 |
| 20260506171504 | 17 | 300 | 3.2 | 9.7 | 0.00 | 0.00 | 0.00 | 63 | 1019.0 |
| 20260506171004 | 18 | 103 | 4.8 | 9.7 | 0.00 | 0.00 | 0.00 | 62 | 1018.9 |
| 20260506170504 | 18 | 31 | 4.8 | 9.7 | 0.00 | 0.00 | 0.00 | 62 | 1018.9 |
| 20260506170004 | 18 | 29 | 1.6 | 9.7 | 0.00 | 0.00 | 0.00 | 65 | 1018.9 |
| 20260506165504 | 17 | 338 | 6.4 | 11.3 | 0.00 | 0.00 | 0.00 | 65 | 1018.9 |
| 20260506165004 | 18 | 63 | 4.8 | 12.9 | 0.00 | 0.00 | 0.00 | 65 | 1018.9 |
| 20260506164504 | 17 | 38 | 4.8 | 12.9 | 0.00 | 0.00 | 0.00 | 65 | 1018.9 |
| 20260506164004 | 17 | 81 | 3.2 | 9.7 | 0.00 | 0.00 | 0.00 | 68 | 1018.9 |
| 20260506163503 | 17 | 16 | 4.8 | 9.7 | 0.00 | 0.00 | 0.00 | 68 | 1019.0 |
| 20260506163004 | 17 | 10 | 4.8 | 9.7 | 0.00 | 0.00 | 0.00 | 67 | 1019.0 |
| 20260506162504 | 17 | 25 | 4.8 | 9.7 | 0.00 | 0.00 | 0.00 | 69 | 1019.0 |
| 20260506162004 | 16 | 50 | 4.8 | 9.7 | 0.00 | 0.00 | 0.00 | 69 | 1019.0 |
| 20260506161504 | 16 | 53 | 4.8 | 8.0 | 0.00 | 0.00 | 0.00 | 70 | 1019.0 |
| 20260506161004 | 16 | 84 | 3.2 | 8.0 | 0.00 | 0.00 | 0.00 | 72 | 1019.0 |
| 20260506160504 | 16 | 147 | 3.2 | 9.7 | 0.00 | 0.00 | 0.00 | 71 | 1019.0 |
| 20260506160004 | 16 | 66 | 4.8 | 9.7 | 0.00 | 0.00 | 0.00 | 71 | 1019.0 |
| 20260506155504 | 15 | 67 | 3.2 | 9.7 | 0.00 | 0.00 | 0.00 | 74 | 1019.2 |
| 20260506155004 | 15 | 67 | 3.2 | 4.8 | 0.00 | 0.00 | 0.00 | 74 | 1019.2 |
| 20260506154504 | 15 | 61 | 3.2 | 4.8 | 0.00 | 0.00 | 0.00 | 74 | 1019.2 |
| 20260506154004 | 15 | 65 | 3.2 | 4.8 | 0.00 | 0.00 | 0.00 | 74 | 1019.2 |
| 20260506153503 | 15 | 103 | 3.2 | 8.0 | 0.00 | 0.00 | 0.00 | 76 | 1019.2 |
| 20260506153003 | 15 | 36 | 3.2 | 8.0 | 0.00 | 0.00 | 0.00 | 76 | 1019.2 |
| 20260506152504 | 14 | 43 | 3.2 | 8.0 | 0.00 | 0.00 | 0.00 | 76 | 1019.2 |
| 20260506152004 | 14 | 44 | 1.6 | 4.8 | 0.00 | 0.00 | 0.00 | 77 | 1019.2 |
| 20260506151004 | 13 | 36 | 0.0 | 4.8 | 0.00 | 0.00 | 0.00 | 79 | 1019.2 |
| 20260506150504 | 13 | 118 | 1.6 | 8.0 | 0.00 | 0.00 | 0.00 | 80 | 1019.2 |
| 20260506150004 | 13 | 95 | 1.6 | 8.0 | 0.00 | 0.00 | 0.00 | 81 | 1019.2 |
| 20260506145504 | 13 | 67 | 0.0 | 0.0 | 0.00 | 0.00 | 0.00 | 81 | 1019.2 |
| 20260506145003 | 13 | 108 | 0.0 | 0.0 | 0.00 | 0.00 | 0.00 | 82 | 1019.0 |
| 20260506144004 | 12 | 96 | 0.0 | 0.0 | 0.00 | 0.00 | 0.00 | 86 | 1019.0 |
| 20260506143504 | 12 | 48 | 0.0 | 0.0 | 0.00 | 0.00 | 0.00 | 86 | 1019.0 |
| 20260506143003 | 12 | 74 | 0.0 | 0.0 | 0.00 | 0.00 | 0.00 | 88 | 1019.0 |
| 20260506142504 | 12 | 47 | 0.0 | 0.0 | 0.00 | 0.00 | 0.00 | 89 | 1019.0 |
| 20260506142004 | 12 | 31 | 0.0 | 0.0 | 0.00 | 0.00 | 0.00 | 89 | 1018.9 |
| 20260506141504 | 11 | 46 | 0.0 | 0.0 | 0.00 | 0.00 | 0.00 | 90 | 1018.9 |
| 20260506141003 | 11 | 40 | 0.0 | 0.0 | 0.00 | 0.00 | 0.00 | 90 | 1018.9 |
| 20260506140504 | 11 | 225 | 0.0 | 0.0 | 0.00 | 0.00 | 0.00 | 90 | 1018.9 |
| 20260506140004 | 11 | 224 | 0.0 | 0.0 | 0.00 | 0.00 | 0.00 | 91 | 1018.9 |
| 20260506135503 | 11 | 224 | 0.0 | 0.0 | 0.00 | 0.00 | 0.00 | 91 | 1018.9 |
| 20260506133504 | 10 | 224 | 0.0 | 0.0 | 0.00 | 0.00 | 0.00 | 91 | 1018.6 |
| 20260506133004 | 10 | 223 | 0.0 | 0.0 | 0.00 | 0.00 | 0.00 | 91 | 1018.6 |
| 20260506132503 | 9 | 225 | 0.0 | 0.0 | 0.00 | 0.00 | 0.00 | 91 | 1018.6 |
| 20260506132003 | 9 | 227 | 0.0 | 0.0 | 0.00 | 0.00 | 0.00 | 91 | 1018.4 |
| 20260506131503 | 9 | 227 | 0.0 | 0.0 | 0.00 | 0.00 | 0.00 | 91 | 1018.4 |
| 20260506131004 | 9 | 217 | 0.0 | 0.0 | 0.00 | 0.00 | 0.00 | 91 | 1018.4 |
| 20260506130503 | 9 | 217 | 0.0 | 0.0 | 0.00 | 0.00 | 0.00 | 91 | 1018.2 |
| 20260506130005 | 9 | 217 | 0.0 | 0.0 | 0.00 | 0.00 | 0.00 | 90 | 1018.2 |
| 20260506125504 | 9 | 217 | 0.0 | 0.0 | 0.00 | 0.00 | 0.00 | 90 | 1018.2 |
| 20260506125004 | 9 | 217 | 0.0 | 0.0 | 0.00 | 0.00 | 0.00 | 90 | 1018.2 |
| 20260506124504 | 9 | 217 | 0.0 | 0.0 | 0.00 | 0.00 | 0.00 | 90 | 1018.2 |
| 20260506123504 | 9 | 224 | 0.0 | 0.0 | 0.00 | 0.00 | 0.00 | 91 | 1018.2 |
| 20260506123004 | 9 | 160 | 0.0 | 0.0 | 0.00 | 0.00 | 0.00 | 91 | 1018.2 |
| 20260506122504 | 9 | 160 | 0.0 | 0.0 | 0.00 | 0.00 | 0.00 | 91 | 1018.1 |
| 20260506122003 | 9 | 160 | 0.0 | 0.0 | 0.00 | 0.00 | 0.00 | 91 | 1018.1 |
| 20260506121504 | 9 | 160 | 0.0 | 0.0 | 0.00 | 0.00 | 0.00 | 91 | 1018.1 |
| 20260506121004 | 10 | 160 | 0.0 | 0.0 | 0.00 | 0.00 | 0.00 | 90 | 1018.1 |
| 20260506120504 | 10 | 160 | 0.0 | 0.0 | 0.00 | 0.00 | 0.00 | 90 | 1018.1 |
| 20260506115503 | 10 | 160 | 0.0 | 0.0 | 0.00 | 0.03 | 0.00 | 90 | 1018.0 |
| 20260506113503 | 10 | 160 | 0.0 | 0.0 | 0.00 | 0.08 | 0.00 | 90 | 1017.9 |
| 20260506113004 | 10 | 160 | 0.0 | 0.0 | 0.00 | 0.08 | 0.00 | 90 | 1017.9 |
| 20260506112504 | 10 | 160 | 0.0 | 0.0 | 0.00 | 0.10 | 0.00 | 90 | 1017.9 |
| 20260506112003 | 10 | 160 | 0.0 | 0.0 | 0.00 | 0.10 | 0.00 | 90 | 1017.9 |
| 20260506111004 | 10 | 160 | 0.0 | 0.0 | 0.00 | 0.15 | 0.00 | 90 | 1017.9 |
| 20260506110504 | 10 | 160 | 0.0 | 0.0 | 0.00 | 0.15 | 0.00 | 90 | 1017.9 |
| 20260506105503 | 10 | 160 | 0.0 | 0.0 | 0.00 | 0.15 | 0.00 | 90 | 1017.9 |
| 20260506104504 | 10 | 81 | 0.0 | 0.0 | 0.00 | 0.18 | 0.00 | 90 | 1018.0 |
| 20260506104004 | 10 | 52 | 0.0 | 0.0 | 0.00 | 0.18 | 0.00 | 89 | 1018.0 |
| 20260506103503 | 10 | 52 | 0.0 | 0.0 | 0.00 | 0.18 | 0.00 | 89 | 1018.0 |
| 20260506102504 | 10 | 52 | 0.0 | 0.0 | 0.00 | 0.18 | 0.00 | 89 | 1018.0 |
| 20260506101504 | 11 | 52 | 0.0 | 0.0 | 0.00 | 0.18 | 0.00 | 89 | 1018.0 |
| 20260506100005 | 11 | 67 | 0.0 | 0.0 | 0.00 | 0.20 | 0.00 | 87 | 1018.0 |
| 20260506095504 | 11 | 71 | 0.0 | 0.0 | 0.00 | 0.20 | 0.00 | 87 | 1018.0 |
| 20260506094503 | 11 | 71 | 0.0 | 0.0 | 0.00 | 0.20 | 0.00 | 87 | 1018.0 |
| 20260506094004 | 11 | 62 | 0.0 | 0.0 | 0.00 | 0.20 | 0.00 | 86 | 1018.0 |
| 20260506093503 | 11 | 62 | 0.0 | 4.8 | 0.00 | 0.20 | 0.00 | 86 | 1018.0 |
| 20260506092504 | 12 | 1 | 1.6 | 4.8 | 0.00 | 0.20 | 0.00 | 86 | 1018.0 |
| 20260506092004 | 12 | 186 | 1.6 | 4.8 | 0.00 | 0.20 | 0.00 | 86 | 1018.0 |
| 20260506091504 | 12 | 293 | 1.6 | 8.0 | 0.00 | 0.20 | 0.00 | 86 | 1018.0 |
| 20260506091004 | 12 | 196 | 3.2 | 8.0 | 0.00 | 0.20 | 0.00 | 86 | 1018.0 |
| 20260506090004 | 12 | 214 | 3.2 | 8.0 | 0.00 | 0.20 | 0.00 | 86 | 1018.0 |
| 20260506085503 | 12 | 209 | 3.2 | 9.7 | 0.00 | 0.20 | 0.00 | 85 | 1018.0 |
| 20260506085004 | 12 | 220 | 3.2 | 9.7 | 0.00 | 0.20 | 0.00 | 85 | 1018.0 |
| 20260506084504 | 12 | 208 | 4.8 | 9.7 | 0.00 | 0.20 | 0.00 | 85 | 1018.2 |
| 20260506084004 | 12 | 212 | 3.2 | 8.0 | 0.00 | 0.20 | 0.00 | 85 | 1018.2 |
| 20260506083504 | 12 | 199 | 3.2 | 8.0 | 0.00 | 0.20 | 0.00 | 85 | 1018.2 |
| 20260506083003 | 12 | 208 | 3.2 | 8.0 | 0.00 | 0.20 | 0.00 | 85 | 1018.3 |
| 20260506082504 | 12 | 212 | 1.6 | 8.0 | 0.00 | 0.20 | 0.00 | 85 | 1018.3 |
| 20260506082003 | 12 | 212 | 3.2 | 4.8 | 0.00 | 0.20 | 0.00 | 85 | 1018.3 |
| 20260506081504 | 11 | 205 | 1.6 | 4.8 | 0.00 | 0.20 | 0.00 | 84 | 1018.3 |
| 20260506081004 | 11 | 202 | 3.2 | 4.8 | 0.00 | 0.20 | 0.00 | 84 | 1018.4 |
| 20260506080504 | 11 | 194 | 1.6 | 4.8 | 0.00 | 0.20 | 0.00 | 84 | 1018.4 |
| 20260506073504 | 12 | 167 | 1.6 | 3.2 | 0.00 | 0.20 | 0.00 | 82 | 1018.4 |
| 20260506073004 | 12 | 159 | 1.6 | 4.8 | 0.00 | 0.20 | 0.00 | 82 | 1018.4 |
| 20260506072503 | 12 | 190 | 1.6 | 4.8 | 0.00 | 0.20 | 0.00 | 82 | 1018.4 |
| 20260506072003 | 12 | 190 | 1.6 | 3.2 | 0.00 | 0.20 | 0.00 | 81 | 1018.4 |
| 20260506071504 | 12 | 165 | 1.6 | 4.8 | 0.00 | 0.20 | 0.00 | 81 | 1018.4 |
| 20260506071004 | 12 | 200 | 1.6 | 4.8 | 0.00 | 0.20 | 0.00 | 81 | 1018.3 |
| 20260506070504 | 12 | 201 | 3.2 | 8.0 | 0.00 | 0.20 | 0.00 | 80 | 1017.8 |
| 20260506062505 | 13 | 252 | 3.2 | 9.7 | 0.00 | 0.20 | 0.20 | 79 | 1017.8 |
| 20260506061504 | 13 | 248 | 3.2 | 4.8 | 0.00 | 0.20 | 0.20 | 79 | 1017.8 |
| 20260506061004 | 13 | 244 | 3.2 | 4.8 | 0.00 | 0.20 | 0.20 | 79 | 1017.8 |
| 20260506060504 | 13 | 235 | 1.6 | 9.7 | 0.00 | 0.20 | 0.20 | 78 | 1017.6 |
| 20260506051004 | 13 | 228 | 4.8 | 12.9 | 0.00 | 0.20 | 0.20 | 76 | 1017.0 |
| 20260506050503 | 13 | 209 | 4.8 | 11.3 | 0.00 | 0.20 | 0.20 | 75 | 1017.0 |
| 20260506045004 | 13 | 226 | 4.8 | 9.7 | 0.00 | 0.20 | 0.20 | 74 | 1016.8 |
| 20260506044504 | 13 | 217 | 3.2 | 11.3 | 0.00 | 0.20 | 0.20 | 74 | 1016.8 |
| 20260506044004 | 13 | 216 | 3.2 | 11.3 | 0.00 | 0.20 | 0.20 | 73 | 1016.8 |
| 20260506043503 | 13 | 209 | 4.8 | 12.9 | 0.00 | 0.20 | 0.20 | 73 | 1016.8 |
| 20260506043003 | 13 | 215 | 4.8 | 12.9 | 0.00 | 0.20 | 0.20 | 72 | 1016.8 |
| 20260506042504 | 13 | 223 | 4.8 | 11.3 | 0.00 | 0.20 | 0.20 | 72 | 1016.8 |
| 20260506042003 | 14 | 214 | 4.8 | 9.7 | 0.00 | 0.20 | 0.20 | 71 | 1016.8 |
| 20260506041504 | 14 | 209 | 4.8 | 9.7 | 0.00 | 0.20 | 0.20 | 71 | 1016.7 |